Bda Buenos Aires, Puerto Rico
Current Conditions -  °F | °C
As of 3:53 AM on Saturday 25 Oct 2014 (Local Time) from TJNR Reporting Station
Scattered Clouds Scattered Clouds  
Wind Chill: 78°   Ceiling: Unl
Heat Index: 81°   Visibility: 10mi
Dew Point: 75°   Wind: 0mph
Humidity: 90%   Direction: NA
Pressure: 29.9"   Gusts: NA
Location:  18.2147°N, 65.7358°W
Report Text: TJNR 250753Z AUTO 00000KT 10SM SCT021 26/24 A2990 RMK AO2 SLP125 T02560239 $
Loading
Personal Weather Stations






























Interactive Weather Map
Tropical Storm Tracking
New forecast layout! Learn more

10-Day Weather Forecast

Advertisements
Track Severe Weather on mobile